Portada
METAR-TAF:

METAR-TAF

Aeroports :

Taba, Egipte

latitud: 29-35-57N, longitud: 034-46-36E, altitud: 749 m

METAR: manca

Hora: 23:47 (21:47 UTC)

Pronòstic

L'informe es va fer fa 4 hores i 47 minuts, a les 17:00 UTC
Pronòstic vàlid del 05 a les 18 UTC al 06 a les 24 UTC
Vent 11 kt del Nord
Visibilitat 10 km o més
sense núvols per sota de 1500 mi sense presència de cumulonimbus.
Evolucionant progressivament
l' 05 a les 21 UTC al 05 a les 22 UTC
Vent 3 kt amb direcció variable
Evolucionant progressivament
l' 06 a les 07 UTC al 06 a les 09 UTC
Vent 11 kt del Nord/Nord-Oest

TAF: HETB 051700Z 0518/0624 36011KT CAVOK BECMG 0521/0522 VRB03KT BECMG 0607/0609 34011KT

Observacions i pronòstics meteorològics de més de 4000 aeroports (METAR i TAF).

Les estacions disponibles són els punts grocs i vermells al mapa.

Posi el ratolí al punt desitjat per veure el nom de l'estació.

Feu clic per veure les observacions i els pronòstics meteorològics.

Per canviar el mapa: feu clic els botons verds amb una creu de color negre per apropar; al botó verd amb un guió per allunyar la imatge; o en les fletxes verdes per a mapes adjacents.


METAR-TAF: